Time;durP1;ratioP1;P1;durP2;ratioP2;P2;SDS_P1;SDS_P2;PMS_P1;PMS_P2;Temp;Humidity;BMP_temperature;BMP_pressure;BME280_temperature;BME280_humidity;BME280_pressure;Samples;Min_cycle;Max_cycle;Signal;HPM_P1;HPM_P2
2022/04/29 00:00:34;;;;;;;11.73;10.30;;;11.20;99.90;;;;;;5115747;28;20209;-67
2022/04/29 00:03:02;;;;;;;10.88;9.88;;;11.20;99.90;;;;;;5115743;28;20197;-67
2022/04/29 00:05:29;;;;;;;10.65;9.63;;;11.20;99.90;;;;;;5115762;28;20294;-66
2022/04/29 00:07:57;;;;;;;10.57;9.57;;;11.30;99.90;;;;;;5116360;28;20292;-67
2022/04/29 00:10:24;;;;;;;10.63;9.63;;;11.30;99.90;;;;;;5115542;28;20223;-67
2022/04/29 00:12:51;;;;;;;10.48;9.48;;;11.30;99.90;;;;;;5116013;28;20208;-66
2022/04/29 00:15:19;;;;;;;11.32;10.23;;;11.30;99.90;;;;;;5115586;28;20294;-67
2022/04/29 00:17:46;;;;;;;10.63;9.05;;;11.40;99.90;;;;;;5115936;28;20210;-67
2022/04/29 00:20:14;;;;;;;9.90;9.05;;;11.30;99.90;;;;;;5115728;28;20201;-66
2022/04/29 00:22:41;;;;;;;11.20;10.02;;;11.30;99.90;;;;;;5115664;28;20699;-67
2022/04/29 00:25:10;;;;;;;10.70;9.73;;;11.20;99.90;;;;;;5115182;28;20316;-67
2022/04/29 00:27:39;;;;;;;10.07;9.18;;;11.00;99.90;;;;;;5115937;28;20202;-66
2022/04/29 00:30:08;;;;;;;11.63;10.63;;;11.10;99.90;;;;;;5115733;28;20215;-66
2022/04/29 00:32:35;;;;;;;11.80;10.50;;;11.00;99.90;;;;;;5115608;28;20198;-67
2022/04/29 00:35:02;;;;;;;11.77;10.70;;;11.00;99.90;;;;;;5115358;28;20226;-66
2022/04/29 00:37:30;;;;;;;12.43;11.23;;;11.00;99.90;;;;;;5115645;28;20583;-66
2022/04/29 00:39:56;;;;;;;14.50;10.85;;;11.00;99.90;;;;;;5115731;28;20331;-66
2022/04/29 00:42:25;;;;;;;12.60;11.35;;;11.00;99.90;;;;;;5114766;28;20312;-67
2022/04/29 00:44:52;;;;;;;12.95;11.27;;;11.00;99.90;;;;;;5114177;28;20221;-67
2022/04/29 00:47:21;;;;;;;11.77;10.57;;;11.00;99.90;;;;;;5114793;28;20872;-69
2022/04/29 00:49:49;;;;;;;12.15;11.05;;;10.90;99.90;;;;;;5114153;28;20258;-68
2022/04/29 00:52:18;;;;;;;12.10;10.98;;;10.80;99.90;;;;;;5114714;28;20208;-66
2022/04/29 00:54:58;;;;;;;14.30;11.82;;;10.80;99.90;;;;;;5114604;28;20274;-67
2022/04/29 00:57:32;;;;;;;13.52;12.10;;;10.80;99.90;;;;;;5114501;28;20212;-66
2022/04/29 01:00:04;;;;;;;13.02;11.60;;;10.60;99.90;;;;;;5114819;28;20211;-67
2022/04/29 01:02:32;;;;;;;12.48;11.18;;;10.50;99.90;;;;;;5114442;28;20225;-66
2022/04/29 01:05:05;;;;;;;14.57;11.48;;;10.50;99.90;;;;;;5114157;28;20560;-67
2022/04/29 01:07:33;;;;;;;12.10;10.93;;;10.60;99.90;;;;;;5114375;28;20213;-68
2022/04/29 01:10:00;;;;;;;13.23;11.80;;;10.50;99.90;;;;;;5113742;28;20216;-67
2022/04/29 01:12:34;;;;;;;12.40;11.10;;;10.50;99.90;;;;;;5114519;28;20205;-67
2022/04/29 01:15:06;;;;;;;12.98;11.77;;;10.50;99.90;;;;;;5114197;28;20217;-67
2022/04/29 01:17:34;;;;;;;13.63;12.13;;;10.50;99.90;;;;;;5114049;28;20273;-68
2022/04/29 01:20:02;;;;;;;11.85;10.70;;;10.50;99.90;;;;;;5113862;28;20209;-66
2022/04/29 01:22:31;;;;;;;13.02;11.73;;;10.50;99.90;;;;;;5113716;28;20590;-67
2022/04/29 01:24:58;;;;;;;13.95;12.13;;;10.50;99.90;;;;;;5113651;28;20725;-67
2022/04/29 01:27:25;;;;;;;13.82;12.35;;;10.50;99.90;;;;;;5114141;28;20201;-67
2022/04/29 01:29:59;;;;;;;12.95;11.57;;;10.20;99.90;;;;;;5113703;28;20216;-67
2022/04/29 01:32:27;;;;;;;13.45;12.15;;;10.30;99.90;;;;;;5113951;28;20196;-67
2022/04/29 01:34:54;;;;;;;12.80;11.70;;;10.30;99.90;;;;;;5113341;28;20627;-67
2022/04/29 01:37:21;;;;;;;12.70;11.40;;;10.40;99.90;;;;;;5113491;28;20208;-68
2022/04/29 01:39:49;;;;;;;12.75;11.60;;;10.40;99.90;;;;;;5109962;28;20201;-67
2022/04/29 01:42:17;;;;;;;13.48;12.18;;;10.40;99.90;;;;;;5114669;28;20239;-67
2022/04/29 01:44:45;;;;;;;13.20;11.90;;;10.50;99.90;;;;;;5114285;28;20718;-67
2022/04/29 01:47:12;;;;;;;13.35;11.95;;;10.20;99.90;;;;;;5114606;28;20229;-67
2022/04/29 01:49:39;;;;;;;14.13;12.52;;;10.30;99.90;;;;;;5114176;28;20212;-67
2022/04/29 01:52:06;;;;;;;13.00;11.70;;;10.10;99.90;;;;;;5114157;28;20681;-67
2022/04/29 01:54:33;;;;;;;13.23;12.02;;;10.30;99.90;;;;;;5114278;28;20216;-67
2022/04/29 01:57:01;;;;;;;13.45;12.15;;;10.30;99.90;;;;;;5114383;28;20572;-67
2022/04/29 01:59:30;;;;;;;14.32;12.82;;;10.40;99.90;;;;;;5114460;28;20205;-67
2022/04/29 02:01:57;;;;;;;13.80;12.40;;;10.40;99.90;;;;;;5114200;28;20232;-67
2022/04/29 02:04:24;;;;;;;13.82;12.43;;;10.40;99.90;;;;;;5114177;28;20552;-67
2022/04/29 02:06:51;;;;;;;13.77;12.38;;;10.40;99.90;;;;;;5114168;28;20574;-67
2022/04/29 02:09:18;;;;;;;14.77;12.70;;;10.30;99.90;;;;;;5114237;28;20205;-67
2022/04/29 02:14:28;;;;;;;13.82;12.55;;;10.20;99.90;;;;;;5113031;28;20217;-67
2022/04/29 02:16:55;;;;;;;13.55;12.00;;;10.20;99.90;;;;;;5113855;28;20201;-67
2022/04/29 02:19:22;;;;;;;13.80;12.40;;;10.10;99.90;;;;;;5114172;28;20208;-67
2022/04/29 02:21:49;;;;;;;13.45;12.23;;;10.20;99.90;;;;;;5114094;28;20217;-67
2022/04/29 02:24:16;;;;;;;13.18;11.75;;;10.20;99.90;;;;;;5113686;28;20232;-67
2022/04/29 02:26:43;;;;;;;12.50;11.20;;;10.00;99.90;;;;;;5114040;28;20197;-67
2022/04/29 02:29:10;;;;;;;13.23;12.02;;;10.10;99.90;;;;;;5113727;28;20647;-67
2022/04/29 02:31:38;;;;;;;13.30;12.00;;;10.10;99.90;;;;;;5114121;28;20208;-67
2022/04/29 02:34:05;;;;;;;15.40;12.38;;;10.20;99.90;;;;;;5113813;28;20583;-67
2022/04/29 02:36:32;;;;;;;13.32;11.93;;;10.10;99.90;;;;;;5114095;28;20201;-67
2022/04/29 02:39:00;;;;;;;14.10;12.60;;;10.10;99.90;;;;;;5113953;28;20210;-67
2022/04/29 02:41:27;;;;;;;13.60;12.40;;;10.10;99.90;;;;;;5113855;28;20209;-68
2022/04/29 02:43:54;;;;;;;13.88;12.48;;;10.10;99.90;;;;;;5113793;28;20220;-67
2022/04/29 02:46:21;;;;;;;14.05;12.50;;;10.20;99.90;;;;;;5113888;28;20566;-67
2022/04/29 02:48:49;;;;;;;14.43;13.00;;;10.20;99.90;;;;;;5113824;28;20571;-67
2022/04/29 02:51:16;;;;;;;14.05;12.63;;;10.20;99.90;;;;;;5113782;28;20295;-67
2022/04/29 02:53:44;;;;;;;14.32;13.02;;;10.20;99.90;;;;;;5113565;28;20217;-67
2022/04/29 02:56:10;;;;;;;14.75;13.32;;;10.20;99.90;;;;;;5113830;28;20203;-67
2022/04/29 02:58:37;;;;;;;15.75;13.80;;;10.20;99.90;;;;;;5113682;28;20297;-67
2022/04/29 03:01:05;;;;;;;15.45;12.75;;;10.10;99.90;;;;;;5113900;28;20297;-66
2022/04/29 03:03:32;;;;;;;15.65;14.00;;;10.10;99.90;;;;;;5113244;28;20217;-67
2022/04/29 03:06:00;;;;;;;16.15;14.43;;;10.10;99.90;;;;;;5113839;28;20207;-67
2022/04/29 03:08:27;;;;;;;14.93;13.43;;;10.00;99.90;;;;;;5113645;28;20197;-67
2022/04/29 03:10:54;;;;;;;14.65;13.15;;;10.00;99.90;;;;;;5113331;28;20205;-67
2022/04/29 03:13:21;;;;;;;15.48;13.73;;;10.00;99.90;;;;;;5113350;28;20201;-67
2022/04/29 03:15:47;;;;;;;13.95;12.65;;;9.90;99.90;;;;;;5113536;28;20288;-67
2022/04/29 03:18:22;;;;;;;15.07;13.57;;;9.90;99.90;;;;;;5113413;28;20304;-67
2022/04/29 03:20:52;;;;;;;14.40;12.65;;;9.90;99.90;;;;;;5113701;28;20593;-67
2022/04/29 03:23:22;;;;;;;14.10;12.68;;;9.80;99.90;;;;;;5113058;28;20709;-67
2022/04/29 03:25:49;;;;;;;13.90;12.65;;;9.70;99.90;;;;;;5113531;28;20201;-67
2022/04/29 03:28:16;;;;;;;14.10;12.60;;;9.70;99.90;;;;;;5116796;28;20690;-67
2022/04/29 03:30:43;;;;;;;14.27;12.88;;;9.70;99.90;;;;;;5117202;28;20202;-67
2022/04/29 03:33:11;;;;;;;15.48;13.88;;;9.60;99.90;;;;;;5117203;28;20621;-67
2022/04/29 03:35:42;;;;;;;15.57;14.02;;;9.60;99.90;;;;;;5117068;28;20225;-67
2022/04/29 03:38:09;;;;;;;14.82;13.20;;;9.60;99.90;;;;;;5116730;28;20292;-67
2022/04/29 03:40:37;;;;;;;15.70;14.10;;;9.50;99.90;;;;;;5116960;28;20201;-67
2022/04/29 03:43:04;;;;;;;14.90;13.40;;;9.40;99.90;;;;;;5116764;28;20226;-67
2022/04/29 03:45:31;;;;;;;15.00;13.60;;;9.50;99.90;;;;;;5116892;28;20225;-67
2022/04/29 03:47:58;;;;;;;15.80;14.23;;;9.40;99.90;;;;;;5116871;28;20293;-67
2022/04/29 03:50:27;;;;;;;14.75;12.80;;;9.50;99.90;;;;;;5116860;28;20745;-67
2022/04/29 03:52:58;;;;;;;15.65;14.18;;;9.60;99.90;;;;;;5116830;28;20594;-67
2022/04/29 03:55:28;;;;;;;13.65;12.32;;;9.60;99.90;;;;;;5116846;28;20232;-67
2022/04/29 03:57:57;;;;;;;14.65;13.25;;;9.60;99.90;;;;;;5116732;28;20198;-67
2022/04/29 04:00:25;;;;;;;14.05;12.77;;;9.80;99.90;;;;;;5116486;28;20205;-67
2022/04/29 04:02:52;;;;;;;14.48;13.07;;;9.70;99.90;;;;;;5116504;28;20213;-67
2022/04/29 04:05:19;;;;;;;14.15;12.77;;;9.60;99.90;;;;;;5116157;28;20221;-67
2022/04/29 04:07:46;;;;;;;13.68;12.27;;;9.70;99.90;;;;;;5116806;28;20228;-67
2022/04/29 04:10:14;;;;;;;14.57;12.38;;;9.60;99.90;;;;;;5116449;28;20207;-67
2022/04/29 04:12:42;;;;;;;16.17;13.88;;;9.50;99.90;;;;;;5116316;28;20201;-67
2022/04/29 04:15:12;;;;;;;15.90;14.20;;;9.30;99.90;;;;;;5115848;28;20334;-67
2022/04/29 04:17:39;;;;;;;16.48;14.77;;;9.20;99.90;;;;;;5116354;27;20207;-67
2022/04/29 04:20:09;;;;;;;15.10;13.57;;;9.10;99.90;;;;;;5116337;28;20291;-67
2022/04/29 04:22:36;;;;;;;16.73;15.07;;;9.30;99.90;;;;;;5115966;28;20695;-67
2022/04/29 04:25:04;;;;;;;16.13;14.52;;;9.30;99.90;;;;;;5116073;28;20217;-67
2022/04/29 04:27:31;;;;;;;16.42;14.73;;;9.40;99.90;;;;;;5116193;28;20197;-67
2022/04/29 04:29:58;;;;;;;15.70;14.15;;;9.50;99.90;;;;;;5115745;28;20237;-67
2022/04/29 04:32:26;;;;;;;15.35;13.68;;;9.60;99.90;;;;;;5116121;28;20204;-67
2022/04/29 04:34:54;;;;;;;17.85;13.65;;;9.60;99.90;;;;;;5115889;28;20221;-67
2022/04/29 04:37:22;;;;;;;15.93;14.32;;;9.50;99.90;;;;;;5115387;28;20205;-67
2022/04/29 04:39:50;;;;;;;15.77;14.20;;;9.50;99.90;;;;;;5115379;28;20301;-67
2022/04/29 04:42:17;;;;;;;15.15;13.55;;;9.60;99.90;;;;;;5115744;28;20204;-68
2022/04/29 04:44:46;;;;;;;15.70;14.20;;;9.60;99.90;;;;;;5115755;28;20229;-67
2022/04/29 04:47:13;;;;;;;15.60;13.98;;;9.70;99.90;;;;;;5115668;28;20198;-67
2022/04/29 04:49:41;;;;;;;14.93;13.25;;;9.80;99.90;;;;;;5115796;28;20197;-67
2022/04/29 04:52:09;;;;;;;14.95;13.35;;;9.80;99.90;;;;;;5115531;28;20292;-67
2022/04/29 04:54:36;;;;;;;17.17;14.15;;;9.80;99.90;;;;;;5115165;28;20228;-67
2022/04/29 04:57:03;;;;;;;16.80;15.00;;;9.80;99.90;;;;;;5115499;28;20205;-67
2022/04/29 04:59:30;;;;;;;16.55;14.30;;;9.80;99.90;;;;;;5115569;28;20202;-67
2022/04/29 05:01:57;;;;;;;16.40;14.52;;;9.80;99.90;;;;;;5115609;28;20205;-66
2022/04/29 05:04:24;;;;;;;17.33;15.57;;;9.70;99.90;;;;;;5115056;28;20695;-67
2022/04/29 05:06:52;;;;;;;16.90;15.15;;;9.60;99.90;;;;;;5115432;28;20213;-67
2022/04/29 05:09:19;;;;;;;20.45;17.95;;;9.40;99.90;;;;;;5115193;28;20208;-67
2022/04/29 05:11:46;;;;;;;17.67;15.90;;;9.40;99.90;;;;;;5115188;28;20713;-67
2022/04/29 05:14:13;;;;;;;19.45;17.40;;;9.30;99.90;;;;;;5115126;28;20221;-67
2022/04/29 05:16:39;;;;;;;18.15;16.25;;;9.20;99.90;;;;;;5115292;28;20205;-67
2022/04/29 05:19:06;;;;;;;18.80;16.77;;;9.20;99.90;;;;;;5115192;28;20619;-67
2022/04/29 05:21:33;;;;;;;18.65;16.75;;;9.20;99.90;;;;;;5114822;28;20292;-67
2022/04/29 05:24:01;;;;;;;18.02;16.13;;;9.30;99.90;;;;;;5115006;28;20230;-67
2022/04/29 05:26:28;;;;;;;17.70;15.75;;;9.50;99.90;;;;;;5114963;28;20292;-67
2022/04/29 05:28:55;;;;;;;21.75;18.02;;;9.60;99.90;;;;;;5114667;28;20205;-67
2022/04/29 05:31:22;;;;;;;19.60;17.45;;;9.70;99.90;;;;;;5114942;28;20440;-67
2022/04/29 05:33:49;;;;;;;19.45;17.35;;;9.70;99.90;;;;;;5114551;28;20243;-67
2022/04/29 05:36:16;;;;;;;20.25;18.15;;;9.70;99.90;;;;;;5114604;28;20205;-67
2022/04/29 05:44:14;;;;;;;18.48;16.65;;;9.80;99.90;;;;;;5114270;28;20232;-67
2022/04/29 05:46:41;;;;;;;19.02;17.08;;;9.90;99.90;;;;;;5114688;28;20203;-67
2022/04/29 05:49:08;;;;;;;19.65;17.00;;;10.00;99.90;;;;;;5114508;28;20322;-67
2022/04/29 05:51:35;;;;;;;20.00;17.90;;;10.10;99.90;;;;;;5114521;28;20201;-67
2022/04/29 05:54:02;;;;;;;21.25;19.10;;;10.30;99.90;;;;;;5114280;28;20274;-67
2022/04/29 05:56:30;;;;;;;20.63;18.48;;;10.20;99.90;;;;;;5114254;28;20688;-67
2022/04/29 05:58:57;;;;;;;21.77;19.52;;;10.10;99.90;;;;;;5114457;28;20197;-67
2022/04/29 06:01:26;;;;;;;22.25;18.98;;;10.10;99.90;;;;;;5114377;28;20336;-67
2022/04/29 06:03:53;;;;;;;20.67;18.35;;;10.00;99.90;;;;;;5113722;28;20229;-67
2022/04/29 06:06:20;;;;;;;21.13;18.60;;;10.00;99.90;;;;;;5114237;28;20567;-67
2022/04/29 06:08:47;;;;;;;19.73;17.70;;;10.10;99.90;;;;;;5114028;28;20208;-67
2022/04/29 06:11:14;;;;;;;20.33;18.10;;;10.30;99.90;;;;;;5114386;28;20296;-67
2022/04/29 06:13:42;;;;;;;23.08;19.10;;;10.40;99.90;;;;;;5114072;28;20248;-67
2022/04/29 06:16:10;;;;;;;21.63;19.35;;;10.50;99.90;;;;;;5114291;28;20288;-67
2022/04/29 06:18:37;;;;;;;23.73;18.55;;;10.50;99.90;;;;;;5114036;28;20747;-67
2022/04/29 06:21:04;;;;;;;21.92;19.63;;;10.70;99.90;;;;;;5114560;28;20300;-67
2022/04/29 06:23:31;;;;;;;23.13;19.50;;;10.80;99.90;;;;;;5113827;28;20227;-67
2022/04/29 06:25:57;;;;;;;23.25;20.95;;;11.00;99.90;;;;;;5114188;28;20208;-67
2022/04/29 06:28:24;;;;;;;21.98;19.65;;;10.90;99.90;;;;;;5113727;28;20556;-67
2022/04/29 06:30:53;;;;;;;25.13;21.13;;;11.00;99.90;;;;;;5114209;28;20541;-67
2022/04/29 06:33:20;;;;;;;25.67;21.50;;;10.90;99.90;;;;;;5113933;28;20292;-67
2022/04/29 06:35:47;;;;;;;22.83;20.63;;;10.80;99.90;;;;;;5113764;28;20292;-67
2022/04/29 06:38:14;;;;;;;23.13;20.73;;;10.80;99.90;;;;;;5114067;28;20229;-67
2022/04/29 06:40:41;;;;;;;22.55;20.15;;;10.80;99.90;;;;;;5114005;28;20566;-67
2022/04/29 06:43:08;;;;;;;22.08;19.85;;;10.90;99.90;;;;;;5113668;28;20222;-68
2022/04/29 06:45:35;;;;;;;23.27;19.83;;;11.00;99.90;;;;;;5113940;28;20225;-67
2022/04/29 06:48:03;;;;;;;20.60;18.50;;;11.10;99.90;;;;;;5113917;28;20288;-67
2022/04/29 06:50:31;;;;;;;21.08;18.95;;;11.20;99.90;;;;;;5113907;28;20205;-67
2022/04/29 06:52:58;;;;;;;22.38;18.40;;;11.40;99.90;;;;;;5113616;28;20198;-67
2022/04/29 06:55:25;;;;;;;20.10;18.00;;;11.60;99.90;;;;;;5113824;28;20217;-67
2022/04/29 06:57:52;;;;;;;21.80;18.00;;;11.70;99.90;;;;;;5113842;28;20229;-67
2022/04/29 07:00:20;;;;;;;20.98;18.98;;;11.70;99.90;;;;;;5113715;28;20567;-67
2022/04/29 07:02:47;;;;;;;19.27;17.25;;;11.90;99.90;;;;;;5116741;28;20684;-67
2022/04/29 07:05:16;;;;;;;19.77;17.63;;;12.10;99.90;;;;;;5117270;28;20217;-67
2022/04/29 07:07:42;;;;;;;20.98;17.83;;;12.30;99.90;;;;;;5117723;28;20201;-67
2022/04/29 07:10:10;;;;;;;19.33;17.40;;;12.40;99.90;;;;;;5117479;28;20208;-67
2022/04/29 07:12:42;;;;;;;19.63;17.63;;;12.60;99.90;;;;;;5117466;28;20208;-67
2022/04/29 07:15:10;;;;;;;20.10;18.13;;;12.90;99.90;;;;;;5117291;28;20220;-67
2022/04/29 07:17:37;;;;;;;19.17;17.15;;;13.00;99.90;;;;;;5117503;28;20204;-67
2022/04/29 07:20:05;;;;;;;20.80;18.00;;;13.00;99.90;;;;;;5117311;28;20266;-67
2022/04/29 07:22:33;;;;;;;19.58;17.63;;;13.10;99.90;;;;;;5117292;28;20682;-66
2022/04/29 07:25:00;;;;;;;21.40;19.17;;;13.20;99.90;;;;;;5116681;28;20228;-67
2022/04/29 07:27:28;;;;;;;19.35;17.45;;;13.30;99.90;;;;;;5117178;28;20622;-67
2022/04/29 07:29:55;;;;;;;19.77;17.77;;;13.40;99.90;;;;;;5116899;28;20204;-67
2022/04/29 07:32:23;;;;;;;20.45;18.27;;;13.50;99.90;;;;;;5117009;28;20750;-67
2022/04/29 07:43:03;;;;;;;20.25;18.15;;;13.80;99.90;;;;;;5116760;28;20197;-67
2022/04/29 07:45:30;;;;;;;21.85;19.65;;;14.00;99.90;;;;;;5116852;28;20244;-67
2022/04/29 07:48:00;;;;;;;21.88;19.73;;;14.10;99.90;;;;;;5116721;28;20293;-67
2022/04/29 07:50:29;;;;;;;20.13;18.02;;;14.20;99.70;;;;;;5116632;28;20207;-67
2022/04/29 07:52:58;;;;;;;20.70;18.63;;;14.40;99.80;;;;;;5116695;28;20213;-67
2022/04/29 07:55:25;;;;;;;19.58;17.50;;;14.40;99.30;;;;;;5116645;28;20220;-67
2022/04/29 07:57:52;;;;;;;20.35;18.15;;;14.50;99.20;;;;;;5116673;28;20206;-67
2022/04/29 08:00:19;;;;;;;20.05;17.63;;;14.70;98.90;;;;;;5116512;28;20210;-67
2022/04/29 08:02:46;;;;;;;19.77;17.75;;;14.80;97.20;;;;;;5117202;28;20620;-67
2022/04/29 08:05:13;;;;;;;21.60;19.38;;;14.80;97.60;;;;;;5115950;28;20694;-67
2022/04/29 08:07:40;;;;;;;21.30;18.45;;;14.80;96.50;;;;;;5116425;28;20199;-67
2022/04/29 08:10:09;;;;;;;19.70;17.80;;;14.70;96.10;;;;;;5116345;28;20211;-67
2022/04/29 08:12:37;;;;;;;22.35;18.55;;;14.60;97.30;;;;;;5116276;28;20201;-67
2022/04/29 08:15:04;;;;;;;21.13;18.98;;;14.60;97.30;;;;;;5115768;28;20238;-67
2022/04/29 08:17:31;;;;;;;20.63;18.48;;;14.80;97.10;;;;;;5116213;28;20202;-67
2022/04/29 08:19:58;;;;;;;22.50;17.92;;;14.80;96.30;;;;;;5116156;28;20242;-67
2022/04/29 08:22:25;;;;;;;20.17;18.17;;;14.80;97.80;;;;;;5115941;28;20664;-67
2022/04/29 08:24:52;;;;;;;19.98;17.88;;;14.70;96.60;;;;;;5115747;28;20231;-67
2022/04/29 08:27:21;;;;;;;21.15;18.65;;;14.60;96.50;;;;;;5115810;28;20670;-67
2022/04/29 08:29:48;;;;;;;19.50;17.13;;;14.70;96.20;;;;;;5115760;28;20215;-67
2022/04/29 08:32:16;;;;;;;18.98;17.17;;;15.10;97.10;;;;;;5115688;28;20701;-67
2022/04/29 08:34:43;;;;;;;19.10;17.10;;;15.10;96.10;;;;;;5115725;28;20222;-67
2022/04/29 08:37:10;;;;;;;19.65;16.95;;;15.00;94.70;;;;;;5111459;28;20200;-69
2022/04/29 08:39:37;;;;;;;19.15;16.85;;;15.30;95.60;;;;;;5103963;28;20684;-68
2022/04/29 08:42:06;;;;;;;15.98;14.38;;;15.30;95.40;;;;;;5114218;28;20204;-69
2022/04/29 08:44:35;;;;;;;16.88;15.27;;;15.20;95.00;;;;;;5114376;28;20314;-69
2022/04/29 08:47:04;;;;;;;17.33;15.63;;;15.30;95.30;;;;;;5114171;28;20246;-69
2022/04/29 08:49:32;;;;;;;16.40;14.70;;;15.40;94.60;;;;;;5113894;28;20190;-69
2022/04/29 08:52:00;;;;;;;15.48;13.95;;;15.60;93.60;;;;;;5113757;28;20235;-68
2022/04/29 09:00:04;;;;;;;15.68;12.85;;;16.80;91.20;;;;;;5113848;28;20208;-69
2022/04/29 09:02:38;;;;;;;13.95;12.65;;;17.30;90.20;;;;;;5113685;28;20232;-69
2022/04/29 09:05:08;;;;;;;14.70;13.33;;;17.80;88.60;;;;;;5113447;28;20234;-68
2022/04/29 09:07:55;;;;;;;14.17;12.87;;;19.10;85.20;;;;;;5113940;28;20454;-69
2022/04/29 09:10:22;;;;;;;13.90;12.67;;;20.90;77.80;;;;;;5113531;28;20964;-68
2022/04/29 09:12:49;;;;;;;12.80;11.70;;;22.10;67.70;;;;;;5113401;28;20448;-69
2022/04/29 09:15:18;;;;;;;13.10;12.00;;;22.50;63.10;;;;;;5113407;28;20549;-69
2022/04/29 09:17:46;;;;;;;13.43;12.07;;;23.20;57.70;;;;;;5113577;28;20816;-69
2022/04/29 09:20:18;;;;;;;12.90;11.70;;;23.50;57.50;;;;;;5113624;28;20448;-69
2022/04/29 09:22:47;;;;;;;12.60;11.30;;;23.90;55.90;;;;;;5113479;28;20454;-69
2022/04/29 09:25:16;;;;;;;12.30;11.17;;;24.30;54.80;;;;;;5112808;28;20483;-68
2022/04/29 09:27:59;;;;;;;12.03;10.87;;;25.40;52.10;;;;;;5113362;28;20451;-69
2022/04/29 09:30:39;;;;;;;10.03;9.13;;;25.80;48.80;;;;;;5113141;28;20466;-69
2022/04/29 09:33:07;;;;;;;11.17;10.07;;;26.30;48.50;;;;;;5112949;28;20998;-70
2022/04/29 09:35:39;;;;;;;12.70;9.83;;;26.90;46.70;;;;;;5113282;28;20456;-73
2022/04/29 09:40:50;;;;;;;10.30;9.40;;;26.30;45.80;;;;;;5081324;28;20420;-71
2022/04/29 09:43:17;;;;;;;9.70;8.90;;;26.50;45.20;;;;;;5112951;28;20439;-71
2022/04/29 09:45:46;;;;;;;9.23;8.53;;;27.90;45.90;;;;;;5113228;28;20481;-71
2022/04/29 09:48:12;;;;;;;11.03;10.00;;;28.80;44.90;;;;;;5113086;28;20478;-71
2022/04/29 09:50:47;;;;;;;9.70;8.87;;;29.30;41.50;;;;;;5112715;28;20475;-72
2022/04/29 09:53:20;;;;;;;9.33;8.50;;;29.40;39.00;;;;;;5112835;28;20453;-72
2022/04/29 09:56:06;;;;;;;9.23;8.43;;;28.80;39.50;;;;;;5113151;28;20466;-71
2022/04/29 09:58:33;;;;;;;7.70;7.10;;;28.40;38.80;;;;;;5113059;28;20446;-71
2022/04/29 10:01:04;;;;;;;8.10;7.50;;;28.40;39.00;;;;;;5112757;28;20448;-70
2022/04/29 10:03:32;;;;;;;8.97;8.07;;;28.10;38.10;;;;;;5112462;28;21283;-70
2022/04/29 10:06:00;;;;;;;8.47;7.63;;;27.50;38.30;;;;;;5113028;28;20475;-71
2022/04/29 10:08:28;;;;;;;8.37;7.63;;;27.00;39.70;;;;;;5112910;28;20439;-71
2022/04/29 10:10:56;;;;;;;8.57;7.97;;;25.50;41.20;;;;;;5112621;28;20446;-70
2022/04/29 10:13:24;;;;;;;9.30;8.60;;;24.50;43.60;;;;;;5112347;28;20454;-71
2022/04/29 10:15:53;;;;;;;8.57;7.87;;;23.60;43.80;;;;;;5112374;28;20482;-71
2022/04/29 10:21:16;;;;;;;8.40;7.80;;;22.80;45.90;;;;;;5112482;28;20992;-71
2022/04/29 10:23:48;;;;;;;7.63;7.03;;;22.40;46.50;;;;;;5112083;28;20964;-71
2022/04/29 10:26:17;;;;;;;8.20;7.40;;;22.50;47.10;;;;;;5112370;28;20520;-71
2022/04/29 10:28:44;;;;;;;7.73;7.03;;;23.20;47.50;;;;;;5112523;28;20477;-70
2022/04/29 10:31:17;;;;;;;8.10;7.30;;;24.40;46.70;;;;;;5112333;28;20929;-69
2022/04/29 10:33:45;;;;;;;7.13;6.43;;;24.90;44.30;;;;;;5112275;28;20817;-70
2022/04/29 10:36:15;;;;;;;6.40;6.00;;;25.60;43.40;;;;;;5113238;28;20439;-70
2022/04/29 10:38:46;;;;;;;6.27;5.67;;;25.90;39.80;;;;;;5116434;28;20447;-71
2022/04/29 10:41:17;;;;;;;6.03;5.53;;;26.40;38.90;;;;;;5116697;28;20439;-72
2022/04/29 10:44:02;;;;;;;6.10;5.60;;;26.90;38.10;;;;;;5116153;28;20462;-72
2022/04/29 10:46:31;;;;;;;6.73;6.23;;;27.40;37.10;;;;;;5116545;28;20467;-72
2022/04/29 10:49:20;;;;;;;6.07;5.67;;;28.00;35.60;;;;;;5116197;28;20442;-70
2022/04/29 10:51:49;;;;;;;6.90;6.40;;;28.60;35.70;;;;;;5116548;28;20481;-70
2022/04/29 10:54:36;;;;;;;7.27;6.67;;;29.40;33.40;;;;;;5116323;28;20466;-70
2022/04/29 10:57:06;;;;;;;6.50;6.10;;;29.90;33.20;;;;;;5116103;28;20444;-71
2022/04/29 10:59:50;;;;;;;6.10;5.70;;;30.30;33.10;;;;;;5116017;28;20461;-70
2022/04/29 11:02:24;;;;;;;6.50;6.00;;;30.50;33.40;;;;;;5116300;28;20465;-70
2022/04/29 11:04:53;;;;;;;5.87;5.50;;;30.80;31.90;;;;;;5115863;28;20575;-70
2022/04/29 11:07:38;;;;;;;5.90;5.40;;;30.10;32.30;;;;;;5116050;28;20444;-71
2022/04/29 11:10:06;;;;;;;6.50;6.00;;;29.80;33.00;;;;;;5115933;28;20470;-71
2022/04/29 11:12:34;;;;;;;5.67;5.17;;;29.20;32.70;;;;;;5115836;28;20605;-70
2022/04/29 11:15:16;;;;;;;5.70;5.30;;;28.70;33.70;;;;;;5115613;28;20469;-70
2022/04/29 11:17:44;;;;;;;6.20;5.70;;;27.60;34.30;;;;;;5115886;28;20447;-71
2022/04/29 11:20:20;;;;;;;8.70;6.77;;;26.90;35.70;;;;;;5115690;28;20451;-70
2022/04/29 11:25:50;;;;;;;6.10;5.70;;;25.80;37.20;;;;;;5115909;28;20497;-70
2022/04/29 11:28:17;;;;;;;6.50;6.00;;;25.10;38.90;;;;;;5115571;28;20457;-71
2022/04/29 11:30:44;;;;;;;6.57;6.07;;;24.60;39.10;;;;;;5114511;28;20494;-71
2022/04/29 11:33:11;;;;;;;7.20;6.33;;;23.80;40.00;;;;;;5114769;28;20447;-70
2022/04/29 11:35:39;;;;;;;7.47;6.87;;;23.40;42.00;;;;;;5114473;28;20475;-71
2022/04/29 11:38:08;;;;;;;7.30;6.70;;;23.00;39.90;;;;;;5114379;28;20451;-70
2022/04/29 11:40:39;;;;;;;7.00;6.40;;;22.70;41.40;;;;;;5114774;28;20449;-71
2022/04/29 11:43:10;;;;;;;10.50;9.33;;;22.50;43.00;;;;;;5115459;28;20447;-70
2022/04/29 11:45:38;;;;;;;6.60;6.13;;;22.30;44.30;;;;;;5115468;28;20490;-71
2022/04/29 11:48:05;;;;;;;13.07;11.87;;;22.20;43.60;;;;;;5115160;28;20802;-71
2022/04/29 11:50:33;;;;;;;7.00;6.40;;;22.10;44.60;;;;;;5115552;28;20517;-70
2022/04/29 11:53:08;;;;;;;14.40;13.20;;;22.10;43.70;;;;;;5115337;28;20439;-71
2022/04/29 11:55:35;;;;;;;6.77;6.27;;;21.90;43.30;;;;;;5115449;28;20457;-70
2022/04/29 11:58:03;;;;;;;7.50;6.77;;;22.10;43.60;;;;;;5115397;28;20443;-71
2022/04/29 12:00:32;;;;;;;5.97;5.47;;;21.90;42.90;;;;;;5116038;28;20876;-71
2022/04/29 12:03:00;;;;;;;6.63;6.07;;;21.90;43.60;;;;;;5115209;28;20435;-70
2022/04/29 12:05:28;;;;;;;6.50;5.97;;;22.00;42.60;;;;;;5115232;28;20479;-70
2022/04/29 12:07:59;;;;;;;6.40;5.80;;;21.90;43.70;;;;;;5115290;28;20526;-71
2022/04/29 12:10:28;;;;;;;7.40;6.00;;;21.80;43.30;;;;;;5115158;28;20446;-70
2022/04/29 12:12:56;;;;;;;7.70;7.10;;;21.80;44.40;;;;;;5115351;28;20439;-70
2022/04/29 12:15:26;;;;;;;7.40;6.73;;;21.50;44.00;;;;;;5115130;28;20817;-71
2022/04/29 12:17:57;;;;;;;6.97;6.37;;;21.20;44.60;;;;;;5115000;28;20451;-70
2022/04/29 12:20:24;;;;;;;5.57;5.17;;;21.30;43.80;;;;;;5115013;28;20439;-70
2022/04/29 12:22:52;;;;;;;5.73;5.27;;;21.30;42.50;;;;;;5114968;28;20447;-70
2022/04/29 12:25:21;;;;;;;5.93;5.53;;;21.40;42.80;;;;;;5114660;28;20475;-70
2022/04/29 12:36:46;;;;;;;6.97;6.50;;;21.60;45.40;;;;;;5131908;28;20433;-70
2022/04/29 12:39:13;;;;;;;6.40;5.90;;;21.30;43.80;;;;;;5132018;27;20442;-70
2022/04/29 12:41:40;;;;;;;6.53;6.03;;;21.50;45.40;;;;;;5131659;27;20438;-70
2022/04/29 12:44:09;;;;;;;8.23;6.77;;;21.60;45.80;;;;;;5131635;27;20549;-70
2022/04/29 12:46:37;;;;;;;7.77;7.10;;;21.80;44.80;;;;;;5131682;27;20449;-70
2022/04/29 12:49:05;;;;;;;9.07;8.17;;;21.90;43.60;;;;;;5131479;27;20477;-70
2022/04/29 12:51:34;;;;;;;8.20;7.50;;;22.00;45.20;;;;;;5131637;27;20526;-70
2022/04/29 12:54:02;;;;;;;7.37;6.67;;;22.20;43.60;;;;;;5131276;27;20537;-70
2022/04/29 12:56:31;;;;;;;8.37;7.67;;;22.50;43.20;;;;;;5131565;27;20439;-70
2022/04/29 12:58:58;;;;;;;7.40;6.90;;;22.60;43.80;;;;;;5131481;27;20439;-71
2022/04/29 13:01:26;;;;;;;9.87;6.93;;;22.60;42.20;;;;;;5131408;27;20442;-70
2022/04/29 13:03:56;;;;;;;8.40;7.60;;;22.50;42.80;;;;;;5131080;27;20545;-70
2022/04/29 13:06:23;;;;;;;7.80;7.20;;;22.40;42.80;;;;;;5131138;27;20514;-70
2022/04/29 13:08:54;;;;;;;9.53;6.60;;;22.40;42.50;;;;;;5131015;27;20569;-70
2022/04/29 13:11:22;;;;;;;7.83;7.20;;;22.40;43.70;;;;;;5131247;27;20438;-70
2022/04/29 13:13:49;;;;;;;7.20;6.60;;;22.40;43.00;;;;;;5130914;27;20577;-70
2022/04/29 13:16:16;;;;;;;8.80;8.00;;;22.50;45.90;;;;;;5131220;27;20439;-70
2022/04/29 13:18:43;;;;;;;8.60;7.90;;;22.50;44.60;;;;;;5131125;27;20452;-70